Barbados Meteorological Services
Auto gathered TAF list
Powered by Apparatus software
For Flight EW153
Contact Number 1-(246)-535-0021/2/3/4/5/6
WEB: http://www.barbadosweather.org

**********************************************

2017/04/24 18:36
TAF TBPB 241700Z 2418/2518 11015KT 9999 SCT018


**********************************************
2017/04/24 12:34
TAF TAPA 241130Z 2412/2512 11014KT 9999 SCT019 BKN038 PROB40
TEMPO 2414/2420 SHRA
TEMPO 2502/2508 4000 SHRA BKN014


**********************************************
2017/04/24 18:18
TAF LPPR 241700Z 2418/2518 32008KT 9999 BKN012
BECMG 2420/2423 VRB03KT 5000 BR BKN005
TEMPO 2423/2509 2000 BR BKN002
BECMG 2510/2512 31008KT 9999 NSW SCT012
BECMG 2512/2515 32010KT SCT030


**********************************************
2017/04/24 18:18
TAF LPPD 241700Z 2418/2518 VRB05KT 9999 SCT012
TEMPO 2418/2518 3000 RADZ BR SCT003 BKN006 FEW018CB PROB40
TEMPO 2418/2512 1500 +RA BR BKN001
BECMG 2500/2503 05007KT
BECMG 2512/2515 VRB05KT


**********************************************
2017/04/24 18:09
TAF LPLA 241706Z 2418/2518 12012KT 9999 SCT006 BKN008
TEMPO 2418/2512 5000 -RA SCT004 BKN006 PROB40
TEMPO 2418/2424 2000 RADZ BR SCT002 BKN003
BECMG 2501/2503 09010KT FEW010 SCT018


**********************************************
2017/04/24 18:20
TAF LPAZ 241700Z 2418/2524 VRB05KT 9999 SCT012 SCT030
TEMPO 2418/2524 3000 RADZ BR SCT003 BKN006 PROB40
TEMPO 2418/2506 1500 +RA BR BKN001
BECMG 2503/2506 08007KT
BECMG 2515/2518 VRB05KT


**********************************************
2017/04/24 18:21
TAF LIMC 241700Z 2418/2524 VRB05KT 9999 SCT040 BKN060
TEMPO 2506/2514 RA
BECMG 2520/2522 RA


**********************************************
2017/04/24 18:21
TAF LFPO 241700Z 2418/2524 30005KT CAVOK
BECMG 2503/2505 BKN016
TEMPO 2505/2510 -RA BKN012
BECMG 2510/2513 CAVOK


**********************************************
2017/04/24 18:27
TAF LEVT 241700Z 2418/2518 VRB02KT CAVOK TX22/2418Z TN05/2504Z
TEMPO 2418/2420 02010KT
BECMG 2508/2510 01010KT
TEMPO 2509/2518 RA BKN014


**********************************************
2017/04/24 18:27
TAF LEMD 241700Z 2418/2524 22010KT CAVOK TX23/2515Z TN10/2506Z PROB40
TEMPO 2418/2420 35012KT FEW040TCU PROB30
TEMPO 2418/2420 SHRA FEW040CB
TEMPO 2420/2509 VRB05KT
TEMPO 2511/2518 22018G28KT
TEMPO 2509/2518 SHRA SCT040TCU


**********************************************
2017/04/24 18:33
TAF ESSA 241730Z 2418/2518 16015G25KT 6000 -RASN BR BKN008
TEMPO 2418/2506 1200 SNRA BKN004
BECMG 2500/2502 19005KT
TEMPO 2506/2518 3000 RASN BKN004


**********************************************
2017/04/24 18:27
TAF ELLX 241700Z 2418/2524 28008KT CAVOK
BECMG 2504/2507 9999 BKN012
BECMG 2507/2509 SCT020 OVC050
TEMPO 2512/2518 32010G20KT -RA
BECMG 2516/2518 01006KT CAVOK


**********************************************
2012/04/19 12:15
TAF TAF EGTE 191401Z 1912/1924 31016KT 9999 SCT030 SCT035 PROB40
TEMPO 1915/1918 7000 SHRA BKN014


**********************************************
2017/04/24 18:15
TAF EGPK 241705Z 2418/2518 31020G30KT 9999 FEW015 SCT025 PROB40
TEMPO 2418/2421 4000 SHRASN BKN008
BECMG 2420/2423 33012KT PROB40
TEMPO 2509/2515 31018G28KT PROB30
TEMPO 2513/2518 8000 -SHRA


**********************************************
2017/04/24 18:15
TAF EGNT 241705Z 2418/2518 31014KT 9999 FEW015 SCT025
TEMPO 2418/2419 32020G32KT 6000 SHRA PROB30
TEMPO 2418/2421 4000 SHRASN BKN010 PROB40
TEMPO 2423/2509 3000 SHRASN BKN008
TEMPO 2509/2518 35018G28KT 6000 SHRA BKN010


**********************************************
2017/04/24 18:15
TAF TAF EGLL 241655Z 2418/2524 33012KT 9999 SCT040 PROB30
TEMPO 2504/2508 BKN012
TEMPO 2513/2521 7000 SHRA PROB30
TEMPO 2514/2519 35015G25KT 4000 +SHRA SHGS BKN014 BKN030CB


**********************************************
2017/04/24 18:15
TAF EGKK 241702Z 2418/2524 31009KT 9999 FEW045 PROB30
TEMPO 2418/2420 6000 SHRA
BECMG 2507/2510 36012KT PROB30
TEMPO 2514/2519 01016G26KT 7000 SHRA


**********************************************
2017/04/24 18:15
TAF EGFF 241654Z 2418/2518 27015KT 9999 FEW030
BECMG 2418/2421 33009KT PROB30
TEMPO 2512/2518 6000 SHRA


**********************************************
2017/04/24 18:15
TAF EGCC 241654Z 2418/2524 29015KT 9999 FEW035
TEMPO 2418/2422 32018G30KT PROB40
TEMPO 2422/2503 4000 -RASN BKN008 PROB40
TEMPO 2512/2518 34015G25KT 5000 SHRAGS BKN014 BKN030CB


**********************************************
2017/04/24 18:15
TAF EGBB 241654Z 2418/2518 31012KT 9999 FEW025
TEMPO 2418/2422 31018G30KT PROB30
TEMPO 2422/2503 4000 -RASN BKN009 PROB40
TEMPO 2512/2518 34015G25KT 5000 SHRAGS BKN014 BKN030CB


**********************************************
2017/04/24 18:27
TAF EDDM 241700Z 2418/2524 24005KT CAVOK
TEMPO 2418/2424 VRB03KT PROB30
TEMPO 2505/2516 27015G25KT SHRA SCT050TCU
BECMG 2508/2510 26010KT
BECMG 2516/2518 32005KT RA BKN012


**********************************************
2017/04/24 18:28
TAF EDDL 241700Z 2418/2524 23007KT 9999 FEW040
BECMG 2501/2503 29009KT
TEMPO 2501/2505 RA BKN012
BECMG 2508/2510 27014KT
TEMPO 2509/2515 27015G25KT
BECMG 2516/2519 30007KT


**********************************************
2017/04/24 18:27
TAF EDDK 241700Z 2418/2524 30007KT 9999 FEW040
BECMG 2419/2421 19005KT
BECMG 2502/2504 28009KT
TEMPO 2502/2506 RA BKN014
TEMPO 2509/2515 28015G25KT


**********************************************
2017/04/24 18:28
TAF EDDF 241700Z 2418/2524 21005KT CAVOK
TEMPO 2418/2504 VRB03KT
BECMG 2506/2509 28010KT BKN030
BECMG 2510/2513 SCT040
BECMG 2518/2521 30005KT


**********************************************
2017/04/24 18:27
TAF TAF EBBR 241700Z 2418/2524 24008KT 9999 SCT040
TEMPO 2421/2501 4500 RA SHRA BKN014 SCT018TCU
BECMG 2505/2507 30010KT PROB30
TEMPO 2510/2519 3000 SHRAGS


**********************************************